createdAt,value
2018-09-28T00:00:41.260Z,0.00
2018-09-28T00:01:41.273Z,0.00
2018-09-28T00:02:41.241Z,0.00
2018-09-28T00:03:41.226Z,0.00
2018-09-28T00:04:41.221Z,0.00
2018-09-28T00:05:41.209Z,0.00
2018-09-28T00:06:41.198Z,0.00
2018-09-28T00:07:41.208Z,0.00
2018-09-28T00:08:41.172Z,0.00
2018-09-28T00:09:41.170Z,0.00
2018-09-28T00:10:41.163Z,0.00
2018-09-28T00:11:41.158Z,0.00
2018-09-28T00:12:41.153Z,0.00
2018-09-28T00:13:41.122Z,0.00
2018-09-28T00:14:41.126Z,0.00
2018-09-28T00:15:41.096Z,0.00
2018-09-28T00:16:41.091Z,0.00
2018-09-28T00:17:41.097Z,0.00
2018-09-28T00:18:41.070Z,0.00
2018-09-28T00:19:41.084Z,0.00
2018-09-28T00:20:41.043Z,0.00
2018-09-28T00:21:41.034Z,0.00
2018-09-28T00:22:41.040Z,0.00
2018-09-28T00:23:41.011Z,0.00
2018-09-28T00:24:41.025Z,0.00
2018-09-28T00:25:40.993Z,0.00
2018-09-28T00:26:40.996Z,0.00
2018-09-28T00:27:40.997Z,0.00
2018-09-28T00:28:40.956Z,0.00
2018-09-28T00:29:40.967Z,0.00
2018-09-28T00:30:40.956Z,0.00
2018-09-28T00:31:40.930Z,0.00
2018-09-28T00:32:40.933Z,0.00
2018-09-28T00:33:40.905Z,0.00
2018-09-28T00:34:40.918Z,0.00
2018-09-28T00:35:40.944Z,0.00
2018-09-28T00:36:40.881Z,0.00
2018-09-28T00:37:40.864Z,0.00
2018-09-28T00:38:40.856Z,0.00
2018-09-28T00:39:40.845Z,0.00
2018-09-28T00:40:40.847Z,0.00
2018-09-28T00:41:40.825Z,0.00
2018-09-28T00:42:40.817Z,0.00
2018-09-28T00:43:40.794Z,0.00
2018-09-28T00:44:40.811Z,0.00
2018-09-28T00:45:40.782Z,0.00
2018-09-28T00:46:40.765Z,0.00
2018-09-28T00:47:40.765Z,0.00
2018-09-28T00:48:40.750Z,0.00
2018-09-28T00:49:40.758Z,0.00
2018-09-28T00:50:40.723Z,0.00
2018-09-28T00:51:40.715Z,0.00
2018-09-28T00:52:40.699Z,0.00
2018-09-28T00:53:40.713Z,0.00
2018-09-28T00:54:40.709Z,0.00
2018-09-28T00:55:40.672Z,0.00
2018-09-28T00:56:40.661Z,0.00
2018-09-28T00:57:40.649Z,0.00
2018-09-28T00:58:40.638Z,0.00
2018-09-28T00:59:40.629Z,0.00
2018-09-28T01:00:40.638Z,0.00
2018-09-28T01:01:40.609Z,0.00
2018-09-28T01:02:40.595Z,0.00
2018-09-28T01:03:40.587Z,0.00
2018-09-28T01:04:40.574Z,0.00
2018-09-28T01:05:40.560Z,0.00
2018-09-28T01:06:40.579Z,0.00
2018-09-28T01:07:40.537Z,0.00
2018-09-28T01:08:40.531Z,0.00
2018-09-28T01:09:40.521Z,0.00
2018-09-28T01:10:40.508Z,0.00
2018-09-28T01:11:40.501Z,0.00
2018-09-28T01:12:40.504Z,0.00
2018-09-28T01:13:40.493Z,0.00
2018-09-28T01:14:40.466Z,0.00
2018-09-28T01:15:40.505Z,0.00
2018-09-28T01:16:40.458Z,0.00
2018-09-28T01:17:40.461Z,0.00
2018-09-28T01:18:40.443Z,0.00
2018-09-28T01:19:40.407Z,0.00
2018-09-28T01:20:40.408Z,0.00
2018-09-28T01:21:40.392Z,0.00
2018-09-28T01:22:40.384Z,0.00
2018-09-28T01:23:40.405Z,0.00
2018-09-28T01:24:40.383Z,0.00
2018-09-28T01:25:40.371Z,0.00
2018-09-28T01:26:40.345Z,0.00
2018-09-28T01:27:40.347Z,0.00
2018-09-28T01:28:40.312Z,0.00
2018-09-28T01:29:40.304Z,0.00
2018-09-28T01:30:40.291Z,0.00
2018-09-28T01:31:40.286Z,0.00
2018-09-28T01:32:40.317Z,0.00
2018-09-28T01:33:40.400Z,0.00
2018-09-28T01:34:40.249Z,0.00
2018-09-28T01:35:40.236Z,0.00
2018-09-28T01:36:40.236Z,0.00
2018-09-28T01:37:40.237Z,0.00
2018-09-28T01:38:40.216Z,0.00
2018-09-28T01:39:40.207Z,0.00
2018-09-28T01:40:40.182Z,0.00
2018-09-28T01:41:40.175Z,0.00
2018-09-28T01:42:40.184Z,0.00
2018-09-28T01:43:40.152Z,0.00
2018-09-28T01:44:40.147Z,0.00
2018-09-28T01:45:40.133Z,0.00
2018-09-28T01:46:40.122Z,0.00
2018-09-28T01:47:40.130Z,0.00
2018-09-28T01:48:40.098Z,0.00
2018-09-28T01:49:40.087Z,0.00
2018-09-28T01:50:40.137Z,0.00
2018-09-28T01:51:40.074Z,0.00
2018-09-28T01:52:40.077Z,0.00
2018-09-28T01:53:40.044Z,0.00
2018-09-28T01:54:40.036Z,0.00
2018-09-28T01:55:40.026Z,0.00
2018-09-28T01:56:40.017Z,0.00
2018-09-28T01:57:40.021Z,0.00
2018-09-28T01:58:39.993Z,0.00
2018-09-28T01:59:39.984Z,0.00
2018-09-28T02:00:39.985Z,0.00
2018-09-28T02:01:39.958Z,0.00
2018-09-28T02:02:39.949Z,0.00
2018-09-28T02:03:39.935Z,0.00
2018-09-28T02:04:39.942Z,0.00
2018-09-28T02:05:39.946Z,0.00
2018-09-28T02:06:39.909Z,0.00
2018-09-28T02:07:39.894Z,0.00
2018-09-28T02:08:39.889Z,0.00
2018-09-28T02:09:39.910Z,0.00
2018-09-28T02:10:39.866Z,0.00
2018-09-28T02:11:39.858Z,0.00
2018-09-28T02:12:39.929Z,0.00
2018-09-28T02:13:39.829Z,0.00
2018-09-28T02:14:39.818Z,0.00
2018-09-28T02:15:39.837Z,0.00
2018-09-28T02:16:39.802Z,0.00
2018-09-28T02:17:39.821Z,0.00
2018-09-28T02:18:39.781Z,0.00
2018-09-28T02:19:39.773Z,0.00
2018-09-28T02:20:39.753Z,0.00
2018-09-28T02:21:39.816Z,0.00
2018-09-28T02:22:39.736Z,0.00
2018-09-28T02:23:39.734Z,0.00
2018-09-28T02:24:39.709Z,0.00
2018-09-28T02:25:39.701Z,0.00
2018-09-28T02:26:39.727Z,0.00
2018-09-28T02:27:39.694Z,0.00
2018-09-28T02:28:39.685Z,0.00
2018-09-28T02:29:39.661Z,0.00
2018-09-28T02:30:39.651Z,0.00
2018-09-28T02:31:39.662Z,0.00
2018-09-28T02:32:39.626Z,0.00
2018-09-28T02:33:39.616Z,0.00
2018-09-28T02:34:39.613Z,0.00
2018-09-28T02:35:39.594Z,0.00
2018-09-28T02:36:39.605Z,0.00
2018-09-28T02:37:39.597Z,0.00
2018-09-28T02:38:39.561Z,0.00
2018-09-28T02:39:39.549Z,0.00
2018-09-28T02:40:39.547Z,0.00
2018-09-28T02:41:39.550Z,0.00
2018-09-28T02:42:39.522Z,0.00
2018-09-28T02:43:39.513Z,0.00
2018-09-28T02:44:39.501Z,0.00
2018-09-28T02:45:39.490Z,0.00
2018-09-28T02:46:39.502Z,0.00
2018-09-28T02:47:39.468Z,0.00
2018-09-28T02:48:39.461Z,0.00
2018-09-28T02:49:39.472Z,0.00
2018-09-28T02:50:39.438Z,0.00
2018-09-28T02:51:39.542Z,0.00
2018-09-28T02:52:39.410Z,0.00
2018-09-28T02:53:39.405Z,0.00
2018-09-28T02:54:39.414Z,0.00
2018-09-28T02:55:39.388Z,0.00
2018-09-28T02:56:39.394Z,0.00
2018-09-28T02:57:39.396Z,0.00
2018-09-28T02:58:39.350Z,0.00
2018-09-28T02:59:39.336Z,0.00
2018-09-28T03:00:39.349Z,0.00
2018-09-28T03:01:39.319Z,0.00
2018-09-28T03:02:39.333Z,0.00
2018-09-28T03:03:39.328Z,0.00
2018-09-28T03:04:39.282Z,0.00
2018-09-28T03:05:39.289Z,0.00
2018-09-28T03:06:39.281Z,0.00
2018-09-28T03:07:39.269Z,0.00
2018-09-28T03:08:39.246Z,0.00
2018-09-28T03:09:39.235Z,0.00
2018-09-28T03:10:39.221Z,0.00
2018-09-28T03:11:39.235Z,0.00
2018-09-28T03:12:39.226Z,0.00
2018-09-28T03:13:39.193Z,0.00
2018-09-28T03:14:39.185Z,0.00
2018-09-28T03:15:39.172Z,0.00
2018-09-28T03:16:39.156Z,0.00
2018-09-28T03:17:39.164Z,0.00
2018-09-28T03:18:39.138Z,0.00
2018-09-28T03:19:39.129Z,0.00
2018-09-28T03:20:39.112Z,0.00
2018-09-28T03:21:39.103Z,0.00
2018-09-28T03:22:39.122Z,0.00
2018-09-28T03:23:39.085Z,0.00
2018-09-28T03:24:39.076Z,0.00
2018-09-28T03:25:39.065Z,0.00
2018-09-28T03:26:39.050Z,0.00
2018-09-28T03:27:39.039Z,0.00
2018-09-28T03:28:39.064Z,0.00
2018-09-28T03:29:39.086Z,0.00
2018-09-28T03:30:39.011Z,0.00
2018-09-28T03:31:39.002Z,0.00
2018-09-28T03:32:39.001Z,0.00
2018-09-28T03:33:39.019Z,0.00
2018-09-28T03:34:38.975Z,0.00
2018-09-28T03:35:38.952Z,0.00
2018-09-28T03:36:38.970Z,0.00
2018-09-28T03:37:38.953Z,0.00
2018-09-28T03:38:38.927Z,0.00
2018-09-28T03:39:38.917Z,0.00
2018-09-28T03:40:39.046Z,0.00
2018-09-28T03:41:38.891Z,0.00
2018-09-28T03:42:39.639Z,0.00
2018-09-28T03:43:38.891Z,0.00
2018-09-28T03:44:38.856Z,0.00
2018-09-28T03:45:38.855Z,0.00
2018-09-28T03:46:38.837Z,0.00
2018-09-28T03:47:38.845Z,0.00
2018-09-28T03:48:38.821Z,0.00
2018-09-28T03:49:38.807Z,0.00
2018-09-28T03:50:38.795Z,0.00
2018-09-28T03:51:38.788Z,0.00
2018-09-28T03:52:38.795Z,0.00
2018-09-28T03:53:38.788Z,0.00
2018-09-28T03:54:38.750Z,0.00
2018-09-28T03:55:38.737Z,0.00
2018-09-28T03:56:38.741Z,0.00
2018-09-28T03:57:38.720Z,0.00
2018-09-28T03:58:38.707Z,0.00
2018-09-28T03:59:38.719Z,0.00
2018-09-28T04:00:38.689Z,0.00
2018-09-28T04:01:38.680Z,0.00
2018-09-28T04:02:38.673Z,0.00
2018-09-28T04:03:38.659Z,0.00
2018-09-28T04:04:38.657Z,0.00
2018-09-28T04:05:38.630Z,0.00
2018-09-28T04:06:38.621Z,0.00
2018-09-28T04:07:38.644Z,0.00
2018-09-28T04:08:38.606Z,0.00
2018-09-28T04:09:38.592Z,0.00
2018-09-28T04:10:38.592Z,0.00
2018-09-28T04:11:38.599Z,0.00
2018-09-28T04:12:38.573Z,0.00
2018-09-28T04:13:38.550Z,0.00
2018-09-28T04:14:38.539Z,0.00
2018-09-28T04:15:38.529Z,0.00
2018-09-28T04:16:38.512Z,0.00
2018-09-28T04:17:38.522Z,0.00
2018-09-28T04:18:38.495Z,0.00
2018-09-28T04:19:38.495Z,0.00
2018-09-28T04:20:38.477Z,0.00
2018-09-28T04:21:38.481Z,0.00
2018-09-28T04:22:38.484Z,0.00
2018-09-28T04:23:38.462Z,0.00
2018-09-28T04:24:38.425Z,0.00
2018-09-28T04:25:38.416Z,0.00
2018-09-28T04:26:38.408Z,0.00
2018-09-28T04:27:38.541Z,0.00
2018-09-28T04:28:38.388Z,0.00
2018-09-28T04:29:38.384Z,0.00
2018-09-28T04:30:38.382Z,0.00
2018-09-28T04:31:38.352Z,0.00
2018-09-28T04:32:38.345Z,0.00
2018-09-28T04:33:38.354Z,0.00
2018-09-28T04:34:38.324Z,0.00
2018-09-28T04:35:38.313Z,0.00
2018-09-28T04:36:38.307Z,0.00
2018-09-28T04:37:38.305Z,0.00
2018-09-28T04:38:38.378Z,0.00
2018-09-28T04:39:38.264Z,0.00
2018-09-28T04:40:38.259Z,0.00
2018-09-28T04:41:38.245Z,0.00
2018-09-28T04:42:38.242Z,0.00
2018-09-28T04:43:38.229Z,0.00
2018-09-28T04:44:38.226Z,0.00
2018-09-28T04:45:38.223Z,0.00
2018-09-28T04:46:38.192Z,0.00
2018-09-28T04:47:38.183Z,0.00
2018-09-28T04:48:38.176Z,0.00
2018-09-28T04:49:38.178Z,0.00
2018-09-28T04:50:38.146Z,0.00
2018-09-28T04:51:38.134Z,0.00
2018-09-28T04:52:38.129Z,0.00
2018-09-28T04:53:38.118Z,0.00
2018-09-28T04:54:38.130Z,0.00
2018-09-28T04:55:38.106Z,0.00
2018-09-28T04:56:38.080Z,0.00
2018-09-28T04:57:38.072Z,0.00
2018-09-28T04:58:38.063Z,4.00
2018-09-28T04:59:38.058Z,4.00
2018-09-28T05:00:38.071Z,4.00
2018-09-28T05:01:38.033Z,0.00
2018-09-28T05:02:38.017Z,0.00
2018-09-28T05:03:38.020Z,4.00
2018-09-28T05:04:38.000Z,0.00
2018-09-28T05:05:38.004Z,4.00
2018-09-28T05:06:37.975Z,4.00
2018-09-28T05:07:37.983Z,8.00
2018-09-28T05:08:37.989Z,8.00
2018-09-28T05:09:37.950Z,4.00
2018-09-28T05:10:37.930Z,12.00
2018-09-28T05:11:37.919Z,12.00
2018-09-28T05:12:37.936Z,12.00
2018-09-28T05:13:37.920Z,12.00
2018-09-28T05:14:37.889Z,16.00
2018-09-28T05:15:37.890Z,16.00
2018-09-28T05:16:37.875Z,20.00
2018-09-28T05:17:37.857Z,24.00
2018-09-28T05:18:37.888Z,28.00
2018-09-28T05:19:37.939Z,36.00
2018-09-28T05:20:37.825Z,40.00
2018-09-28T05:21:37.813Z,48.00
2018-09-28T05:22:37.829Z,48.00
2018-09-28T05:23:37.821Z,48.00
2018-09-28T05:24:37.784Z,52.00
2018-09-28T05:25:37.773Z,56.00
2018-09-28T05:26:37.781Z,60.00
2018-09-28T05:27:37.755Z,60.00
2018-09-28T05:28:37.754Z,60.00
2018-09-28T05:29:37.726Z,64.00
2018-09-28T05:30:44.970Z,68.00
2018-09-28T05:31:40.078Z,72.00
2018-09-28T05:32:37.919Z,68.00
2018-09-28T05:33:37.704Z,76.00
2018-09-28T05:34:37.671Z,88.00
2018-09-28T05:35:37.661Z,96.00
2018-09-28T05:36:37.689Z,100.00
2018-09-28T05:37:37.675Z,96.00
2018-09-28T05:38:37.647Z,104.00
2018-09-28T05:39:37.677Z,120.00
2018-09-28T05:40:37.658Z,124.00
2018-09-28T05:41:37.703Z,124.00
2018-09-28T05:42:37.627Z,144.00
2018-09-28T05:43:37.620Z,172.00
2018-09-28T05:44:37.630Z,176.00
2018-09-28T05:45:37.559Z,180.00
2018-09-28T05:46:37.626Z,216.00
2018-09-28T05:47:37.537Z,240.00
2018-09-28T05:48:37.518Z,296.00
2018-09-28T05:49:37.534Z,352.00
2018-09-28T05:50:37.504Z,336.00
2018-09-28T05:51:37.492Z,264.00
2018-09-28T05:52:37.492Z,264.00
2018-09-28T05:53:37.470Z,304.00
2018-09-28T05:54:37.461Z,376.00
2018-09-28T05:55:37.447Z,428.00
2018-09-28T05:56:37.446Z,360.00
2018-09-28T05:57:37.458Z,304.00
2018-09-28T05:58:37.520Z,384.00
2018-09-28T05:59:37.424Z,476.00
2018-09-28T06:00:37.425Z,408.00
2018-09-28T06:01:37.436Z,332.00
2018-09-28T06:02:37.369Z,336.00
2018-09-28T06:03:37.381Z,364.00
2018-09-28T06:04:37.356Z,344.00
2018-09-28T06:05:37.551Z,320.00
2018-09-28T06:06:37.325Z,300.00
2018-09-28T06:07:37.314Z,252.00
2018-09-28T06:08:37.310Z,212.00
2018-09-28T06:09:37.319Z,208.00
2018-09-28T06:10:37.284Z,232.00
2018-09-28T06:11:37.286Z,212.00
2018-09-28T06:12:37.256Z,220.00
2018-09-28T06:13:37.248Z,264.00
2018-09-28T06:14:37.256Z,300.00
2018-09-28T06:15:37.224Z,264.00
2018-09-28T06:16:37.220Z,272.00
2018-09-28T06:17:37.228Z,340.00
2018-09-28T06:18:37.253Z,408.00
2018-09-28T06:19:37.207Z,444.00
2018-09-28T06:20:37.175Z,408.00
2018-09-28T06:21:37.230Z,376.00
2018-09-28T06:22:37.197Z,448.00
2018-09-28T06:23:37.147Z,580.00
2018-09-28T06:24:37.132Z,656.00
2018-09-28T06:25:37.126Z,692.00
2018-09-28T06:26:37.133Z,564.00
2018-09-28T06:27:37.098Z,328.00
2018-09-28T06:28:37.124Z,304.00
2018-09-28T06:29:37.114Z,364.00
2018-09-28T06:30:37.110Z,492.00
2018-09-28T06:31:37.058Z,648.00
2018-09-28T06:32:37.040Z,680.00
2018-09-28T06:33:37.041Z,652.00
2018-09-28T06:34:37.020Z,660.00
2018-09-28T06:35:37.060Z,656.00
2018-09-28T06:36:37.003Z,632.00
2018-09-28T06:37:37.007Z,728.00
2018-09-28T06:38:37.004Z,992.00
2018-09-28T06:39:36.966Z,1224.00
2018-09-28T06:40:36.959Z,1360.00
2018-09-28T06:41:36.947Z,1404.00
2018-09-28T06:42:36.960Z,1584.00
2018-09-28T06:43:36.978Z,1716.00
2018-09-28T06:44:36.995Z,1976.00
2018-09-28T06:45:36.902Z,1760.00
2018-09-28T06:46:36.890Z,1716.00
2018-09-28T06:47:36.892Z,1644.00
2018-09-28T06:48:36.872Z,1604.00
2018-09-28T06:49:36.892Z,1624.00
2018-09-28T06:50:36.869Z,1784.00
2018-09-28T06:51:36.839Z,1792.00
2018-09-28T06:52:36.826Z,1992.00
2018-09-28T06:53:36.857Z,2028.00
2018-09-28T06:54:36.807Z,2140.00
2018-09-28T06:55:36.813Z,2972.00
2018-09-28T06:56:36.792Z,3280.00
2018-09-28T06:57:36.772Z,3280.00
2018-09-28T06:58:36.760Z,3172.00
2018-09-28T06:59:36.746Z,2860.00
2018-09-28T07:00:36.760Z,2388.00
2018-09-28T07:01:36.771Z,1960.00
2018-09-28T07:02:36.724Z,1740.00
2018-09-28T07:03:36.768Z,1480.00
2018-09-28T07:04:36.776Z,1200.00
2018-09-28T07:05:36.800Z,1128.00
2018-09-28T07:06:36.974Z,1224.00
2018-09-28T07:07:36.917Z,1484.00
2018-09-28T07:08:36.656Z,1732.00
2018-09-28T07:09:36.644Z,1820.00
2018-09-28T07:10:36.646Z,1872.00
2018-09-28T07:11:36.618Z,1584.00
2018-09-28T07:12:36.655Z,1348.00
2018-09-28T07:13:36.606Z,1248.00
2018-09-28T07:14:36.613Z,1248.00
2018-09-28T07:15:36.625Z,1260.00
2018-09-28T07:16:36.591Z,1452.00
2018-09-28T07:17:36.574Z,1484.00
2018-09-28T07:18:36.548Z,1592.00
2018-09-28T07:19:36.548Z,1688.00
2018-09-28T07:20:36.523Z,1544.00
2018-09-28T07:21:36.511Z,1380.00
2018-09-28T07:22:36.523Z,1156.00
2018-09-28T07:23:36.494Z,1056.00
2018-09-28T07:24:36.531Z,1004.00
2018-09-28T07:25:36.500Z,1124.00
2018-09-28T07:26:36.483Z,1292.00
2018-09-28T07:27:36.478Z,1680.00
2018-09-28T07:28:36.431Z,2032.00
2018-09-28T07:29:36.427Z,2068.00
2018-09-28T07:30:36.416Z,2280.00
2018-09-28T07:31:36.419Z,2064.00
2018-09-28T07:32:36.413Z,1852.00
2018-09-28T07:33:36.389Z,1556.00
2018-09-28T07:34:36.379Z,1436.00
2018-09-28T07:35:36.363Z,1472.00
2018-09-28T07:36:36.540Z,1496.00
2018-09-28T07:37:36.357Z,1440.00
2018-09-28T07:38:36.325Z,1372.00
2018-09-28T07:39:36.316Z,1208.00
2018-09-28T07:40:36.307Z,1224.00
2018-09-28T07:41:36.319Z,1324.00
2018-09-28T07:42:36.282Z,1252.00
2018-09-28T07:43:36.276Z,1208.00
2018-09-28T07:44:36.267Z,1212.00
2018-09-28T07:45:36.284Z,1080.00
2018-09-28T07:46:36.315Z,956.00
2018-09-28T07:47:36.254Z,844.00
2018-09-28T07:48:36.230Z,984.00
2018-09-28T07:49:36.207Z,1408.00
2018-09-28T07:50:36.199Z,1432.00
2018-09-28T07:51:36.189Z,1704.00
2018-09-28T07:52:36.178Z,2052.00
2018-09-28T07:53:36.214Z,2516.00
2018-09-28T07:54:36.159Z,3252.00
2018-09-28T07:55:36.187Z,2844.00
2018-09-28T07:56:36.136Z,2840.00
2018-09-28T07:57:36.120Z,2612.00
2018-09-28T07:58:36.153Z,2500.00
2018-09-28T07:59:36.107Z,2464.00
2018-09-28T08:00:36.126Z,2344.00
2018-09-28T08:01:36.084Z,2328.00
2018-09-28T08:02:36.088Z,2120.00
2018-09-28T08:03:36.059Z,1900.00
2018-09-28T08:04:36.071Z,2372.00
2018-09-28T08:05:36.050Z,2628.00
2018-09-28T08:06:36.125Z,2832.00
2018-09-28T08:07:36.072Z,2868.00
2018-09-28T08:08:36.009Z,3184.00
2018-09-28T08:09:36.017Z,3008.00
2018-09-28T08:10:35.983Z,2724.00
2018-09-28T08:11:35.987Z,2956.00
2018-09-28T08:12:35.966Z,3060.00
2018-09-28T08:13:35.957Z,2900.00
2018-09-28T08:14:35.940Z,2772.00
2018-09-28T08:15:35.946Z,2516.00
2018-09-28T08:16:35.962Z,2716.00
2018-09-28T08:17:35.920Z,3188.00
2018-09-28T08:18:35.937Z,3980.00
2018-09-28T08:19:35.887Z,4524.00
2018-09-28T08:20:35.875Z,4892.00
2018-09-28T08:21:35.880Z,4456.00
2018-09-28T08:22:35.851Z,3900.00
2018-09-28T08:23:35.864Z,3076.00
2018-09-28T08:24:35.873Z,2532.00
2018-09-28T08:25:35.828Z,2152.00
2018-09-28T08:26:35.863Z,2324.00
2018-09-28T08:27:35.905Z,2780.00
2018-09-28T08:28:35.806Z,2832.00
2018-09-28T08:29:35.786Z,2716.00
2018-09-28T08:30:35.853Z,2668.00
2018-09-28T08:31:35.760Z,2804.00
2018-09-28T08:32:35.764Z,2716.00
2018-09-28T08:33:35.753Z,2428.00
2018-09-28T08:34:35.731Z,2288.00
2018-09-28T08:35:35.711Z,2264.00
2018-09-28T08:36:35.733Z,2240.00
2018-09-28T08:37:35.700Z,2192.00
2018-09-28T08:38:35.703Z,2504.00
2018-09-28T08:39:35.695Z,2736.00
2018-09-28T08:40:35.683Z,2648.00
2018-09-28T08:41:35.645Z,2480.00
2018-09-28T08:42:35.635Z,2248.00
2018-09-28T08:43:35.723Z,2512.00
2018-09-28T08:44:35.622Z,3024.00
2018-09-28T08:45:35.678Z,3344.00
2018-09-28T08:46:35.598Z,2992.00
2018-09-28T08:47:35.614Z,2620.00
2018-09-28T08:48:35.660Z,2452.00
2018-09-28T08:49:35.639Z,2844.00
2018-09-28T08:50:35.690Z,2832.00
2018-09-28T08:51:35.541Z,3884.00
2018-09-28T08:52:35.607Z,4160.00
2018-09-28T08:53:35.539Z,3788.00
2018-09-28T08:54:35.504Z,3716.00
2018-09-28T08:55:35.495Z,4168.00
2018-09-28T08:56:35.493Z,4488.00
2018-09-28T08:57:35.498Z,4900.00
2018-09-28T08:58:35.485Z,5916.00
2018-09-28T08:59:35.462Z,6476.00
2018-09-28T09:00:35.495Z,6824.00
2018-09-28T09:01:35.430Z,6764.00
2018-09-28T09:02:35.426Z,5828.00
2018-09-28T09:03:35.419Z,5828.00
2018-09-28T09:04:35.430Z,5724.00
2018-09-28T09:05:35.385Z,6156.00
2018-09-28T09:06:35.396Z,6284.00
2018-09-28T09:07:35.367Z,6876.00
2018-09-28T09:08:35.360Z,7208.00
2018-09-28T09:09:35.370Z,6980.00
2018-09-28T09:10:35.337Z,6888.00
2018-09-28T09:11:35.343Z,7460.00
2018-09-28T09:12:35.343Z,7536.00
2018-09-28T09:13:35.298Z,7000.00
2018-09-28T09:14:35.291Z,6184.00
2018-09-28T09:15:35.281Z,6056.00
2018-09-28T09:16:35.281Z,6740.00
2018-09-28T09:17:35.280Z,7164.00
2018-09-28T09:18:35.243Z,7152.00
2018-09-28T09:19:35.242Z,7032.00
2018-09-28T09:20:35.228Z,7340.00
2018-09-28T09:21:35.228Z,7432.00
2018-09-28T09:22:35.223Z,6908.00
2018-09-28T09:23:35.194Z,6296.00
2018-09-28T09:24:35.188Z,5944.00
2018-09-28T09:25:35.167Z,5560.00
2018-09-28T09:26:35.156Z,6188.00
2018-09-28T09:27:35.172Z,7116.00
2018-09-28T09:28:35.191Z,7468.00
2018-09-28T09:29:35.179Z,7908.00
2018-09-28T09:30:35.142Z,8892.00
2018-09-28T09:31:35.193Z,9268.00
2018-09-28T09:32:35.095Z,9004.00
2018-09-28T09:33:35.113Z,8068.00
2018-09-28T09:34:35.100Z,7828.00
2018-09-28T09:35:35.075Z,8072.00
2018-09-28T09:36:35.115Z,8724.00
2018-09-28T09:37:35.035Z,8436.00
2018-09-28T09:38:35.046Z,7396.00
2018-09-28T09:39:35.020Z,6584.00
2018-09-28T09:40:35.019Z,6236.00
2018-09-28T09:41:35.001Z,6084.00
2018-09-28T09:42:35.131Z,5344.00
2018-09-28T09:43:34.975Z,5680.00
2018-09-28T09:44:34.969Z,6220.00
2018-09-28T09:45:34.953Z,5332.00
2018-09-28T09:46:34.988Z,5140.00
2018-09-28T09:47:34.952Z,5528.00
2018-09-28T09:48:34.930Z,6096.00
2018-09-28T09:49:34.915Z,7152.00
2018-09-28T09:50:34.896Z,7320.00
2018-09-28T09:51:34.923Z,6420.00
2018-09-28T09:52:34.936Z,9060.00
2018-09-28T09:53:34.869Z,7972.00
2018-09-28T09:54:34.857Z,7752.00
2018-09-28T09:55:34.857Z,11992.00
2018-09-28T09:56:34.830Z,10248.00
2018-09-28T09:57:34.873Z,7884.00
2018-09-28T09:58:34.825Z,6620.00
2018-09-28T09:59:34.815Z,6596.00
2018-09-28T10:00:34.792Z,7060.00
2018-09-28T10:01:34.799Z,8916.00
2018-09-28T10:02:35.481Z,9760.00
2018-09-28T10:03:34.775Z,9632.00
2018-09-28T10:04:34.745Z,8612.00
2018-09-28T10:05:34.737Z,8112.00
2018-09-28T10:06:36.492Z,8732.00
2018-09-28T10:07:34.717Z,8620.00
2018-09-28T10:08:34.724Z,8580.00
2018-09-28T10:09:34.820Z,8892.00
2018-09-28T10:10:34.677Z,8496.00
2018-09-28T10:11:34.674Z,8644.00
2018-09-28T10:12:34.795Z,9036.00
2018-09-28T10:13:34.711Z,9072.00
2018-09-28T10:14:34.641Z,8964.00
2018-09-28T10:15:34.646Z,9492.00
2018-09-28T10:16:34.617Z,9836.00
2018-09-28T10:17:34.606Z,10252.00
2018-09-28T10:18:34.591Z,10620.00
2018-09-28T10:19:34.606Z,10996.00
2018-09-28T10:20:34.604Z,12004.00
2018-09-28T10:21:34.604Z,11944.00
2018-09-28T10:22:34.563Z,10632.00
2018-09-28T10:23:34.561Z,9948.00
2018-09-28T10:24:34.552Z,9900.00
2018-09-28T10:25:34.523Z,10216.00
2018-09-28T10:26:34.517Z,10464.00
2018-09-28T10:27:34.531Z,10996.00
2018-09-28T10:28:34.518Z,11432.00
2018-09-28T10:29:34.471Z,11092.00
2018-09-28T10:30:34.461Z,10456.00
2018-09-28T10:31:34.454Z,10128.00
2018-09-28T10:32:35.392Z,10004.00
2018-09-28T10:33:34.573Z,10152.00
2018-09-28T10:34:34.454Z,10332.00
2018-09-28T10:35:34.415Z,10088.00
2018-09-28T10:36:34.409Z,9436.00
2018-09-28T10:37:34.385Z,8756.00
2018-09-28T10:38:34.405Z,8080.00
2018-09-28T10:39:34.407Z,7592.00
2018-09-28T10:40:34.408Z,7372.00
2018-09-28T10:41:34.346Z,7328.00
2018-09-28T10:42:34.331Z,7376.00
2018-09-28T10:43:34.340Z,7336.00
2018-09-28T10:44:34.315Z,7292.00
2018-09-28T10:45:34.356Z,7208.00
2018-09-28T10:46:34.323Z,6920.00
2018-09-28T10:47:34.284Z,6580.00
2018-09-28T10:48:34.286Z,6596.00
2018-09-28T10:49:34.265Z,6712.00
2018-09-28T10:50:34.243Z,7052.00
2018-09-28T10:51:34.255Z,7604.00
2018-09-28T10:52:34.303Z,8160.00
2018-09-28T10:53:34.270Z,8320.00
2018-09-28T10:54:34.264Z,8120.00
2018-09-28T10:55:34.265Z,7720.00
2018-09-28T10:56:34.285Z,7028.00
2018-09-28T10:57:34.176Z,6536.00
2018-09-28T10:58:34.194Z,6596.00
2018-09-28T10:59:34.156Z,6800.00
2018-09-28T11:00:34.222Z,6864.00
2018-09-28T11:01:34.144Z,6784.00
2018-09-28T11:02:34.115Z,6700.00
2018-09-28T11:03:34.114Z,6748.00
2018-09-28T11:04:34.136Z,7004.00
2018-09-28T11:05:34.092Z,7500.00
2018-09-28T11:06:34.082Z,7960.00
2018-09-28T11:07:34.094Z,8384.00
2018-09-28T11:08:34.255Z,8856.00
2018-09-28T11:09:34.093Z,9484.00
2018-09-28T11:10:34.090Z,10192.00
2018-09-28T11:11:34.042Z,11068.00
2018-09-28T11:12:34.108Z,12104.00
2018-09-28T11:13:34.017Z,12840.00
2018-09-28T11:14:34.009Z,13124.00
2018-09-28T11:15:34.119Z,13504.00
2018-09-28T11:16:33.989Z,13760.00
2018-09-28T11:17:33.959Z,13780.00
2018-09-28T11:18:33.986Z,13476.00
2018-09-28T11:19:34.015Z,13148.00
2018-09-28T11:20:33.926Z,13184.00
2018-09-28T11:21:33.914Z,13288.00
2018-09-28T11:22:33.910Z,13016.00
2018-09-28T11:23:33.922Z,12700.00
2018-09-28T11:24:33.882Z,12696.00
2018-09-28T11:25:34.099Z,13164.00
2018-09-28T11:26:33.884Z,14028.00
2018-09-28T11:27:33.891Z,14800.00
2018-09-28T11:28:33.905Z,15296.00
2018-09-28T11:29:33.876Z,15436.00
2018-09-28T11:30:33.835Z,15108.00
2018-09-28T11:31:33.892Z,14956.00
2018-09-28T11:32:33.797Z,15700.00
2018-09-28T11:33:33.839Z,16896.00
2018-09-28T11:34:33.794Z,17216.00
2018-09-28T11:35:33.793Z,16928.00
2018-09-28T11:36:33.784Z,16672.00
2018-09-28T11:37:33.809Z,16832.00
2018-09-28T11:38:33.735Z,17312.00
2018-09-28T11:39:33.838Z,17824.00
2018-09-28T11:40:33.706Z,18400.00
2018-09-28T11:41:33.701Z,18368.00
2018-09-28T11:42:33.696Z,16768.00
2018-09-28T11:43:33.693Z,14140.00
2018-09-28T11:44:33.689Z,12960.00
2018-09-28T11:45:33.674Z,12880.00
2018-09-28T11:46:33.658Z,12748.00
2018-09-28T11:47:33.631Z,12680.00
2018-09-28T11:48:33.626Z,12860.00
2018-09-28T11:49:33.632Z,13100.00
2018-09-28T11:50:33.609Z,13936.00
2018-09-28T11:51:33.623Z,15100.00
2018-09-28T11:52:33.583Z,16288.00
2018-09-28T11:53:33.590Z,16416.00
2018-09-28T11:54:33.599Z,15900.00
2018-09-28T11:55:33.574Z,16736.00
2018-09-28T11:56:33.589Z,17472.00
2018-09-28T11:57:33.645Z,16896.00
2018-09-28T11:58:33.594Z,16704.00
2018-09-28T11:59:33.503Z,16320.00
2018-09-28T12:00:33.519Z,15884.00
2018-09-28T12:01:33.486Z,15868.00
2018-09-28T12:02:33.478Z,15800.00
2018-09-28T12:03:33.475Z,15888.00
2018-09-28T12:04:33.470Z,16448.00
2018-09-28T12:05:33.456Z,16608.00
2018-09-28T12:06:33.596Z,17152.00
2018-09-28T12:07:33.421Z,17344.00
2018-09-28T12:08:33.428Z,17632.00
2018-09-28T12:09:33.419Z,17088.00
2018-09-28T12:10:33.392Z,17088.00
2018-09-28T12:11:33.378Z,16768.00
2018-09-28T12:12:33.373Z,16448.00
2018-09-28T12:13:33.406Z,16056.00
2018-09-28T12:14:33.350Z,17120.00
2018-09-28T12:15:33.350Z,18208.00
2018-09-28T12:16:33.324Z,18752.00
2018-09-28T12:17:33.315Z,20160.00
2018-09-28T12:18:33.414Z,21888.00
2018-09-28T12:19:33.297Z,23424.00
2018-09-28T12:20:33.285Z,23936.00
2018-09-28T12:21:33.338Z,25120.00
2018-09-28T12:22:33.261Z,25248.00
2018-09-28T12:23:33.275Z,24256.00
2018-09-28T12:24:33.432Z,23296.00
2018-09-28T12:25:33.243Z,22656.00
2018-09-28T12:26:33.212Z,22336.00
2018-09-28T12:27:33.279Z,21760.00
2018-09-28T12:28:33.196Z,21056.00
2018-09-28T12:29:33.210Z,20416.00
2018-09-28T12:30:33.174Z,19392.00
2018-09-28T12:31:33.162Z,19872.00
2018-09-28T12:32:33.152Z,18112.00
2018-09-28T12:33:33.199Z,17920.00
2018-09-28T12:34:33.151Z,18464.00